Forgan, Oklahoma
Current Conditions -  °F | °C
As of 12:15 PM on Monday 26 Jan 2015 (Local Time) from KLBL Reporting Station
Clear Clear  
Wind Chill: 64°   Ceiling: Unl
Heat Index: 64°   Visibility: 10mi
Dew Point: 34°   Wind: 14mph
Humidity: 32%   Direction: 330°NNW
Pressure: 30.21"   Gusts: NA
Location:  36.91°N, 100.54°W
Report Text: KLBL 261815Z AUTO 33012KT 10SM CLR 18/01 A3021 RMK AO1
Loading
Personal Weather Stations






























Interactive Weather Map New forecast layout! Learn more

10-Day Weather Forecast

Advertisements
Track Severe Weather on mobile